sensor_id;sensor_type;location;lat;lon;timestamp;temperature;humidity
69800;DHT22;67217;51.008;4.644;2023-03-01T00:01:20;0.90;63.80
69800;DHT22;67217;51.008;4.644;2023-03-01T00:03:48;1.00;63.60
69800;DHT22;67217;51.008;4.644;2023-03-01T00:06:15;0.90;63.90
69800;DHT22;67217;51.008;4.644;2023-03-01T00:08:43;0.80;65.90
69800;DHT22;67217;51.008;4.644;2023-03-01T00:11:17;0.70;67.00
69800;DHT22;67217;51.008;4.644;2023-03-01T00:13:46;0.60;67.50
69800;DHT22;67217;51.008;4.644;2023-03-01T00:16:20;0.60;67.60
69800;DHT22;67217;51.008;4.644;2023-03-01T00:18:48;0.60;67.50
69800;DHT22;67217;51.008;4.644;2023-03-01T00:21:17;0.50;67.70
69800;DHT22;67217;51.008;4.644;2023-03-01T00:23:46;0.50;68.00
69800;DHT22;67217;51.008;4.644;2023-03-01T00:26:16;0.30;68.80
69800;DHT22;67217;51.008;4.644;2023-03-01T00:28:45;0.20;69.50
69800;DHT22;67217;51.008;4.644;2023-03-01T00:31:18;0.10;69.70
69800;DHT22;67217;51.008;4.644;2023-03-01T00:33:46;0.10;69.90
69800;DHT22;67217;51.008;4.644;2023-03-01T00:36:15;0.10;70.20
69800;DHT22;67217;51.008;4.644;2023-03-01T00:38:45;0.20;69.80
69800;DHT22;67217;51.008;4.644;2023-03-01T00:41:15;0.20;69.60
69800;DHT22;67217;51.008;4.644;2023-03-01T00:43:44;0.20;68.30
69800;DHT22;67217;51.008;4.644;2023-03-01T00:46:19;0.30;67.80
69800;DHT22;67217;51.008;4.644;2023-03-01T00:48:43;0.30;67.10
69800;DHT22;67217;51.008;4.644;2023-03-01T00:51:12;0.30;67.20
69800;DHT22;67217;51.008;4.644;2023-03-01T00:53:41;0.40;66.70
69800;DHT22;67217;51.008;4.644;2023-03-01T00:56:11;0.40;66.90
69800;DHT22;67217;51.008;4.644;2023-03-01T00:58:39;0.50;66.40
69800;DHT22;67217;51.008;4.644;2023-03-01T01:01:09;0.50;66.30
69800;DHT22;67217;51.008;4.644;2023-03-01T01:03:38;0.40;66.00
69800;DHT22;67217;51.008;4.644;2023-03-01T01:06:06;0.50;65.30
69800;DHT22;67217;51.008;4.644;2023-03-01T01:08:36;0.60;65.50
69800;DHT22;67217;51.008;4.644;2023-03-01T01:11:04;0.50;65.20
69800;DHT22;67217;51.008;4.644;2023-03-01T01:13:32;0.40;65.70
69800;DHT22;67217;51.008;4.644;2023-03-01T01:16:02;0.40;65.70
69800;DHT22;67217;51.008;4.644;2023-03-01T01:18:30;0.50;65.80
69800;DHT22;67217;51.008;4.644;2023-03-01T01:21:06;0.50;66.20
69800;DHT22;67217;51.008;4.644;2023-03-01T01:23:34;0.40;66.00
69800;DHT22;67217;51.008;4.644;2023-03-01T01:26:10;0.50;65.80
69800;DHT22;67217;51.008;4.644;2023-03-01T01:28:38;0.50;65.40
69800;DHT22;67217;51.008;4.644;2023-03-01T01:31:06;0.50;65.60
69800;DHT22;67217;51.008;4.644;2023-03-01T01:33:34;0.50;65.90
69800;DHT22;67217;51.008;4.644;2023-03-01T01:36:05;0.40;66.00
69800;DHT22;67217;51.008;4.644;2023-03-01T01:38:33;0.40;65.90
69800;DHT22;67217;51.008;4.644;2023-03-01T01:41:01;0.40;65.80
69800;DHT22;67217;51.008;4.644;2023-03-01T01:43:33;0.40;66.20
69800;DHT22;67217;51.008;4.644;2023-03-01T01:46:05;0.40;65.90
69800;DHT22;67217;51.008;4.644;2023-03-01T01:48:41;0.30;66.20
69800;DHT22;67217;51.008;4.644;2023-03-01T01:51:13;0.30;66.60
69800;DHT22;67217;51.008;4.644;2023-03-01T01:53:42;0.40;66.10
69800;DHT22;67217;51.008;4.644;2023-03-01T01:56:12;0.30;67.10
69800;DHT22;67217;51.008;4.644;2023-03-01T01:58:43;0.20;66.80
69800;DHT22;67217;51.008;4.644;2023-03-01T02:04:00;0.20;67.30
69800;DHT22;67217;51.008;4.644;2023-03-01T02:06:36;0.20;67.70
69800;DHT22;67217;51.008;4.644;2023-03-01T02:09:02;0.10;68.70
69800;DHT22;67217;51.008;4.644;2023-03-01T02:11:31;0.10;68.40
69800;DHT22;67217;51.008;4.644;2023-03-01T02:13:59;0.10;68.30
69800;DHT22;67217;51.008;4.644;2023-03-01T02:16:27;-0.10;69.40
69800;DHT22;67217;51.008;4.644;2023-03-01T02:18:55;-0.30;69.80
69800;DHT22;67217;51.008;4.644;2023-03-01T02:23:59;-0.40;71.30
69800;DHT22;67217;51.008;4.644;2023-03-01T02:28:59;-0.50;72.60
69800;DHT22;67217;51.008;4.644;2023-03-01T02:31:27;-0.60;72.10
69800;DHT22;67217;51.008;4.644;2023-03-01T02:34:15;-0.60;72.00
69800;DHT22;67217;51.008;4.644;2023-03-01T02:36:55;-0.60;71.20
69800;DHT22;67217;51.008;4.644;2023-03-01T02:39:37;-0.50;71.10
69800;DHT22;67217;51.008;4.644;2023-03-01T02:42:09;-0.50;70.80
69800;DHT22;67217;51.008;4.644;2023-03-01T02:44:37;-0.40;70.80
69800;DHT22;67217;51.008;4.644;2023-03-01T02:47:05;-0.50;70.50
69800;DHT22;67217;51.008;4.644;2023-03-01T02:49:35;-0.50;70.10
69800;DHT22;67217;51.008;4.644;2023-03-01T02:57:36;-0.50;70.30
69800;DHT22;67217;51.008;4.644;2023-03-01T03:00:10;-0.50;70.10
69800;DHT22;67217;51.008;4.644;2023-03-01T03:02:40;-0.40;69.90
69800;DHT22;67217;51.008;4.644;2023-03-01T03:05:17;-0.40;69.60
69800;DHT22;67217;51.008;4.644;2023-03-01T03:07:46;-0.40;69.90
69800;DHT22;67217;51.008;4.644;2023-03-01T03:10:25;-0.50;69.80
69800;DHT22;67217;51.008;4.644;2023-03-01T03:12:53;-0.40;69.90
69800;DHT22;67217;51.008;4.644;2023-03-01T03:15:22;-0.50;69.80
69800;DHT22;67217;51.008;4.644;2023-03-01T03:17:52;-0.40;69.60
69800;DHT22;67217;51.008;4.644;2023-03-01T03:20:23;-0.40;69.60
69800;DHT22;67217;51.008;4.644;2023-03-01T03:22:53;-0.50;69.80
69800;DHT22;67217;51.008;4.644;2023-03-01T03:25:22;-0.50;69.80
69800;DHT22;67217;51.008;4.644;2023-03-01T03:27:51;-0.50;69.90
69800;DHT22;67217;51.008;4.644;2023-03-01T03:30:20;-0.50;70.10
69800;DHT22;67217;51.008;4.644;2023-03-01T03:32:48;-0.40;70.10
69800;DHT22;67217;51.008;4.644;2023-03-01T03:35:25;-0.50;69.80
69800;DHT22;67217;51.008;4.644;2023-03-01T03:37:53;-0.50;69.80
69800;DHT22;67217;51.008;4.644;2023-03-01T03:40:35;-0.50;70.00
69800;DHT22;67217;51.008;4.644;2023-03-01T03:43:08;-0.50;70.10
69800;DHT22;67217;51.008;4.644;2023-03-01T03:45:37;-0.50;70.00
69800;DHT22;67217;51.008;4.644;2023-03-01T03:48:07;-0.40;70.00
69800;DHT22;67217;51.008;4.644;2023-03-01T03:50:37;-0.50;70.10
69800;DHT22;67217;51.008;4.644;2023-03-01T03:53:07;-0.50;70.10
69800;DHT22;67217;51.008;4.644;2023-03-01T03:55:36;-0.40;70.00
69800;DHT22;67217;51.008;4.644;2023-03-01T03:58:06;-0.50;70.10
69800;DHT22;67217;51.008;4.644;2023-03-01T04:00:41;-0.50;70.20
69800;DHT22;67217;51.008;4.644;2023-03-01T04:03:05;-0.60;70.50
69800;DHT22;67217;51.008;4.644;2023-03-01T04:05:33;-0.50;70.20
69800;DHT22;67217;51.008;4.644;2023-03-01T04:08:01;-0.50;70.70
69800;DHT22;67217;51.008;4.644;2023-03-01T04:10:37;-0.50;70.70
69800;DHT22;67217;51.008;4.644;2023-03-01T04:13:08;-0.60;70.70
69800;DHT22;67217;51.008;4.644;2023-03-01T04:15:36;-0.60;71.00
69800;DHT22;67217;51.008;4.644;2023-03-01T04:18:04;-0.70;71.20
69800;DHT22;67217;51.008;4.644;2023-03-01T04:20:34;-0.60;70.80
69800;DHT22;67217;51.008;4.644;2023-03-01T04:23:03;-0.60;70.70
69800;DHT22;67217;51.008;4.644;2023-03-01T04:25:47;-0.60;70.90
69800;DHT22;67217;51.008;4.644;2023-03-01T04:28:13;-0.80;71.30
69800;DHT22;67217;51.008;4.644;2023-03-01T04:30:41;-0.80;71.60
69800;DHT22;67217;51.008;4.644;2023-03-01T04:33:09;-0.90;72.00
69800;DHT22;67217;51.008;4.644;2023-03-01T04:35:37;-0.80;72.00
69800;DHT22;67217;51.008;4.644;2023-03-01T04:38:07;-0.70;71.70
69800;DHT22;67217;51.008;4.644;2023-03-01T04:40:35;-0.80;71.60
69800;DHT22;67217;51.008;4.644;2023-03-01T04:43:04;-0.80;71.90
69800;DHT22;67217;51.008;4.644;2023-03-01T04:45:32;-0.70;71.30
69800;DHT22;67217;51.008;4.644;2023-03-01T04:48:01;-0.70;71.50
69800;DHT22;67217;51.008;4.644;2023-03-01T04:50:29;-0.60;71.20
69800;DHT22;67217;51.008;4.644;2023-03-01T04:52:57;-0.70;71.00
69800;DHT22;67217;51.008;4.644;2023-03-01T04:55:27;-0.70;71.70
69800;DHT22;67217;51.008;4.644;2023-03-01T04:57:55;-0.70;71.60
69800;DHT22;67217;51.008;4.644;2023-03-01T05:00:24;-0.80;71.50
69800;DHT22;67217;51.008;4.644;2023-03-01T05:05:41;-0.80;71.50
69800;DHT22;67217;51.008;4.644;2023-03-01T05:08:11;-0.90;72.00
69800;DHT22;67217;51.008;4.644;2023-03-01T05:10:40;-0.90;72.20
69800;DHT22;67217;51.008;4.644;2023-03-01T05:13:08;-1.00;72.50
69800;DHT22;67217;51.008;4.644;2023-03-01T05:15:36;-1.00;72.80
69800;DHT22;67217;51.008;4.644;2023-03-01T05:18:04;-1.00;73.10
69800;DHT22;67217;51.008;4.644;2023-03-01T05:20:34;-1.00;73.20
69800;DHT22;67217;51.008;4.644;2023-03-01T05:23:02;-1.00;73.00
69800;DHT22;67217;51.008;4.644;2023-03-01T05:25:33;-0.90;72.90
69800;DHT22;67217;51.008;4.644;2023-03-01T05:28:02;-1.00;72.60
69800;DHT22;67217;51.008;4.644;2023-03-01T05:30:32;-1.10;73.10
69800;DHT22;67217;51.008;4.644;2023-03-01T05:33:00;-1.00;73.10
69800;DHT22;67217;51.008;4.644;2023-03-01T05:35:27;-1.00;73.10
69800;DHT22;67217;51.008;4.644;2023-03-01T05:37:56;-1.10;73.30
69800;DHT22;67217;51.008;4.644;2023-03-01T05:40:24;-1.00;73.20
69800;DHT22;67217;51.008;4.644;2023-03-01T05:42:56;-1.10;73.00
69800;DHT22;67217;51.008;4.644;2023-03-01T05:45:25;-1.10;73.20
69800;DHT22;67217;51.008;4.644;2023-03-01T05:47:54;-1.20;73.40
69800;DHT22;67217;51.008;4.644;2023-03-01T05:50:27;-1.30;73.80
69800;DHT22;67217;51.008;4.644;2023-03-01T05:53:01;-1.20;73.80
69800;DHT22;67217;51.008;4.644;2023-03-01T05:55:29;-1.20;73.90
69800;DHT22;67217;51.008;4.644;2023-03-01T05:57:59;-1.20;73.60
69800;DHT22;67217;51.008;4.644;2023-03-01T06:00:28;-1.20;73.70
69800;DHT22;67217;51.008;4.644;2023-03-01T06:05:45;-1.20;73.60
69800;DHT22;67217;51.008;4.644;2023-03-01T06:08:13;-1.20;73.80
69800;DHT22;67217;51.008;4.644;2023-03-01T06:10:41;-1.20;74.00
69800;DHT22;67217;51.008;4.644;2023-03-01T06:13:09;-1.30;73.60
69800;DHT22;67217;51.008;4.644;2023-03-01T06:15:37;-1.30;73.70
69800;DHT22;67217;51.008;4.644;2023-03-01T06:18:05;-1.30;74.00
69800;DHT22;67217;51.008;4.644;2023-03-01T06:20:33;-1.30;74.40
69800;DHT22;67217;51.008;4.644;2023-03-01T06:23:02;-1.30;74.40
69800;DHT22;67217;51.008;4.644;2023-03-01T06:25:30;-1.40;74.40
69800;DHT22;67217;51.008;4.644;2023-03-01T06:28:00;-1.40;74.70
69800;DHT22;67217;51.008;4.644;2023-03-01T06:30:27;-1.40;75.10
69800;DHT22;67217;51.008;4.644;2023-03-01T06:32:56;-1.40;75.10
69800;DHT22;67217;51.008;4.644;2023-03-01T06:35:26;-1.40;74.70
69800;DHT22;67217;51.008;4.644;2023-03-01T06:37:55;-1.40;74.60
69800;DHT22;67217;51.008;4.644;2023-03-01T06:40:23;-1.40;74.60
69800;DHT22;67217;51.008;4.644;2023-03-01T06:42:52;-1.40;74.60
69800;DHT22;67217;51.008;4.644;2023-03-01T06:45:20;-1.40;74.30
69800;DHT22;67217;51.008;4.644;2023-03-01T06:47:48;-1.50;74.70
69800;DHT22;67217;51.008;4.644;2023-03-01T06:50:17;-1.60;75.00
69800;DHT22;67217;51.008;4.644;2023-03-01T06:52:45;-1.50;75.10
69800;DHT22;67217;51.008;4.644;2023-03-01T06:55:14;-1.50;75.10
69800;DHT22;67217;51.008;4.644;2023-03-01T06:57:42;-1.40;74.70
69800;DHT22;67217;51.008;4.644;2023-03-01T07:00:11;-1.50;74.90
69800;DHT22;67217;51.008;4.644;2023-03-01T07:02:39;-1.30;75.20
69800;DHT22;67217;51.008;4.644;2023-03-01T07:05:07;-1.10;74.70
69800;DHT22;67217;51.008;4.644;2023-03-01T07:07:34;-1.20;74.00
69800;DHT22;67217;51.008;4.644;2023-03-01T07:10:03;-1.10;74.00
69800;DHT22;67217;51.008;4.644;2023-03-01T07:12:31;-1.10;74.20
69800;DHT22;67217;51.008;4.644;2023-03-01T07:14:59;-0.80;73.90
69800;DHT22;67217;51.008;4.644;2023-03-01T07:17:26;-0.80;73.30
69800;DHT22;67217;51.008;4.644;2023-03-01T07:19:54;-0.70;74.00
69800;DHT22;67217;51.008;4.644;2023-03-01T07:22:22;-0.50;72.50
69800;DHT22;67217;51.008;4.644;2023-03-01T07:24:50;-0.50;72.40
69800;DHT22;67217;51.008;4.644;2023-03-01T07:27:18;-0.40;72.10
69800;DHT22;67217;51.008;4.644;2023-03-01T07:29:46;-0.40;72.00
69800;DHT22;67217;51.008;4.644;2023-03-01T07:32:14;-0.30;71.60
69800;DHT22;67217;51.008;4.644;2023-03-01T07:34:42;-0.20;71.60
69800;DHT22;67217;51.008;4.644;2023-03-01T07:37:09;-0.10;71.20
69800;DHT22;67217;51.008;4.644;2023-03-01T07:39:37;0.00;70.70
69800;DHT22;67217;51.008;4.644;2023-03-01T07:42:05;0.00;70.80
69800;DHT22;67217;51.008;4.644;2023-03-01T07:44:32;-0.10;71.20
69800;DHT22;67217;51.008;4.644;2023-03-01T07:47:01;0.10;71.00
69800;DHT22;67217;51.008;4.644;2023-03-01T07:49:29;0.20;70.70
69800;DHT22;67217;51.008;4.644;2023-03-01T07:51:57;0.20;70.90
69800;DHT22;67217;51.008;4.644;2023-03-01T07:54:44;0.20;70.80
69800;DHT22;67217;51.008;4.644;2023-03-01T07:57:12;0.30;70.70
69800;DHT22;67217;51.008;4.644;2023-03-01T07:59:40;0.30;70.50
69800;DHT22;67217;51.008;4.644;2023-03-01T08:02:09;0.30;70.80
69800;DHT22;67217;51.008;4.644;2023-03-01T08:04:37;0.30;70.80
69800;DHT22;67217;51.008;4.644;2023-03-01T08:07:24;0.40;70.80
69800;DHT22;67217;51.008;4.644;2023-03-01T08:09:53;0.70;69.90
69800;DHT22;67217;51.008;4.644;2023-03-01T08:12:20;0.80;69.30
69800;DHT22;67217;51.008;4.644;2023-03-01T08:14:48;0.80;68.90
69800;DHT22;67217;51.008;4.644;2023-03-01T08:17:16;0.90;68.20
69800;DHT22;67217;51.008;4.644;2023-03-01T08:19:44;0.80;69.20
69800;DHT22;67217;51.008;4.644;2023-03-01T08:22:12;0.80;70.20
69800;DHT22;67217;51.008;4.644;2023-03-01T08:24:40;1.10;68.90
69800;DHT22;67217;51.008;4.644;2023-03-01T08:27:07;1.20;68.20
69800;DHT22;67217;51.008;4.644;2023-03-01T08:29:36;1.20;67.80
69800;DHT22;67217;51.008;4.644;2023-03-01T08:32:04;1.20;67.90
69800;DHT22;67217;51.008;4.644;2023-03-01T08:34:32;1.20;68.00
69800;DHT22;67217;51.008;4.644;2023-03-01T08:37:01;1.50;66.70
69800;DHT22;67217;51.008;4.644;2023-03-01T08:39:29;2.00;66.20
69800;DHT22;67217;51.008;4.644;2023-03-01T08:41:57;2.60;62.50
69800;DHT22;67217;51.008;4.644;2023-03-01T08:44:25;2.50;62.80
69800;DHT22;67217;51.008;4.644;2023-03-01T08:46:53;2.40;63.20
69800;DHT22;67217;51.008;4.644;2023-03-01T08:49:22;2.10;64.20
69800;DHT22;67217;51.008;4.644;2023-03-01T08:51:51;2.00;64.60
69800;DHT22;67217;51.008;4.644;2023-03-01T08:54:20;2.10;65.00
69800;DHT22;67217;51.008;4.644;2023-03-01T08:56:49;2.20;64.70
69800;DHT22;67217;51.008;4.644;2023-03-01T08:59:18;2.30;63.80
69800;DHT22;67217;51.008;4.644;2023-03-01T09:01:46;2.40;63.70
69800;DHT22;67217;51.008;4.644;2023-03-01T09:04:15;2.30;63.20
69800;DHT22;67217;51.008;4.644;2023-03-01T09:09:31;2.40;63.70
69800;DHT22;67217;51.008;4.644;2023-03-01T09:11:58;2.40;64.10
69800;DHT22;67217;51.008;4.644;2023-03-01T09:14:26;2.50;63.80
69800;DHT22;67217;51.008;4.644;2023-03-01T09:16:56;2.70;62.20
69800;DHT22;67217;51.008;4.644;2023-03-01T09:19:24;2.90;61.10
69800;DHT22;67217;51.008;4.644;2023-03-01T09:21:52;2.90;60.60
69800;DHT22;67217;51.008;4.644;2023-03-01T09:24:21;2.80;60.30
69800;DHT22;67217;51.008;4.644;2023-03-01T09:26:50;2.90;60.00
69800;DHT22;67217;51.008;4.644;2023-03-01T09:29:19;2.90;60.10
69800;DHT22;67217;51.008;4.644;2023-03-01T09:31:47;3.00;60.30
69800;DHT22;67217;51.008;4.644;2023-03-01T09:34:15;3.10;59.60
69800;DHT22;67217;51.008;4.644;2023-03-01T09:36:44;3.10;60.10
69800;DHT22;67217;51.008;4.644;2023-03-01T09:39:12;3.10;60.10
69800;DHT22;67217;51.008;4.644;2023-03-01T09:41:57;3.10;59.80
69800;DHT22;67217;51.008;4.644;2023-03-01T09:47:23;3.30;60.00
69800;DHT22;67217;51.008;4.644;2023-03-01T09:49:58;3.40;58.10
69800;DHT22;67217;51.008;4.644;2023-03-01T09:52:34;3.40;58.70
69800;DHT22;67217;51.008;4.644;2023-03-01T09:54:54;3.50;57.90
69800;DHT22;67217;51.008;4.644;2023-03-01T10:00:36;3.40;57.90
69800;DHT22;67217;51.008;4.644;2023-03-01T10:03:16;3.50;58.10
69800;DHT22;67217;51.008;4.644;2023-03-01T10:08:42;3.70;57.40
69800;DHT22;67217;51.008;4.644;2023-03-01T10:11:20;3.80;58.00
69800;DHT22;67217;51.008;4.644;2023-03-01T10:13:58;4.00;56.90
69800;DHT22;67217;51.008;4.644;2023-03-01T10:17:04;4.30;56.20
69800;DHT22;67217;51.008;4.644;2023-03-01T10:22:31;4.60;55.20
69800;DHT22;67217;51.008;4.644;2023-03-01T10:25:02;4.50;54.50
69800;DHT22;67217;51.008;4.644;2023-03-01T10:27:36;4.40;54.70
69800;DHT22;67217;51.008;4.644;2023-03-01T10:30:30;4.20;55.00
69800;DHT22;67217;51.008;4.644;2023-03-01T10:32:53;4.30;55.30
69800;DHT22;67217;51.008;4.644;2023-03-01T10:35:27;4.30;55.10
69800;DHT22;67217;51.008;4.644;2023-03-01T10:41:06;4.20;54.10
69800;DHT22;67217;51.008;4.644;2023-03-01T10:43:54;4.40;54.90
69800;DHT22;67217;51.008;4.644;2023-03-01T10:46:30;4.50;54.90
69800;DHT22;67217;51.008;4.644;2023-03-01T10:49:15;4.70;54.30
69800;DHT22;67217;51.008;4.644;2023-03-01T10:51:45;4.80;54.40
69800;DHT22;67217;51.008;4.644;2023-03-01T10:54:22;4.90;53.80
69800;DHT22;67217;51.008;4.644;2023-03-01T10:56:52;5.30;53.00
69800;DHT22;67217;51.008;4.644;2023-03-01T10:59:38;5.80;51.60
69800;DHT22;67217;51.008;4.644;2023-03-01T11:02:24;6.10;49.10
69800;DHT22;67217;51.008;4.644;2023-03-01T11:05:13;6.40;48.90
69800;DHT22;67217;51.008;4.644;2023-03-01T11:07:35;6.60;48.10
69800;DHT22;67217;51.008;4.644;2023-03-01T11:12:52;7.70;45.70
69800;DHT22;67217;51.008;4.644;2023-03-01T11:15:26;9.60;42.00
69800;DHT22;67217;51.008;4.644;2023-03-01T11:17:55;11.50;37.20
69800;DHT22;67217;51.008;4.644;2023-03-01T11:20:37;12.60;33.40
69800;DHT22;67217;51.008;4.644;2023-03-01T11:23:10;13.40;31.30
69800;DHT22;67217;51.008;4.644;2023-03-01T11:25:43;15.00;29.60
69800;DHT22;67217;51.008;4.644;2023-03-01T11:28:14;16.20;27.20
69800;DHT22;67217;51.008;4.644;2023-03-01T11:38:57;16.90;26.10
69800;DHT22;67217;51.008;4.644;2023-03-01T11:41:29;16.20;25.90
69800;DHT22;67217;51.008;4.644;2023-03-01T11:44:21;16.80;25.00
69800;DHT22;67217;51.008;4.644;2023-03-01T11:46:37;17.40;25.20
69800;DHT22;67217;51.008;4.644;2023-03-01T11:49:23;17.90;24.00
69800;DHT22;67217;51.008;4.644;2023-03-01T11:57:17;19.50;22.60
69800;DHT22;67217;51.008;4.644;2023-03-01T12:03:24;18.60;22.30
69800;DHT22;67217;51.008;4.644;2023-03-01T12:05:44;18.80;22.30
69800;DHT22;67217;51.008;4.644;2023-03-01T12:08:15;18.90;21.90
69800;DHT22;67217;51.008;4.644;2023-03-01T12:13:51;19.40;22.40
69800;DHT22;67217;51.008;4.644;2023-03-01T12:19:13;18.80;22.00
69800;DHT22;67217;51.008;4.644;2023-03-01T12:27:16;19.40;22.10
69800;DHT22;67217;51.008;4.644;2023-03-01T12:30:31;19.20;21.70
69800;DHT22;67217;51.008;4.644;2023-03-01T12:35:54;19.20;22.20
69800;DHT22;67217;51.008;4.644;2023-03-01T12:37:36;19.60;20.80
69800;DHT22;67217;51.008;4.644;2023-03-01T12:40:04;19.00;22.90
69800;DHT22;67217;51.008;4.644;2023-03-01T12:50:52;18.60;22.40
69800;DHT22;67217;51.008;4.644;2023-03-01T12:53:46;18.40;23.20
69800;DHT22;67217;51.008;4.644;2023-03-01T12:56:10;19.50;21.40
69800;DHT22;67217;51.008;4.644;2023-03-01T13:04:34;18.60;21.60
69800;DHT22;67217;51.008;4.644;2023-03-01T13:07:19;19.00;21.60
69800;DHT22;67217;51.008;4.644;2023-03-01T13:10:06;19.20;21.80
69800;DHT22;67217;51.008;4.644;2023-03-01T13:20:48;19.00;23.20
69800;DHT22;67217;51.008;4.644;2023-03-01T13:23:25;18.70;21.80
69800;DHT22;67217;51.008;4.644;2023-03-01T13:31:05;19.20;21.10
69800;DHT22;67217;51.008;4.644;2023-03-01T13:36:07;18.20;22.70
69800;DHT22;67217;51.008;4.644;2023-03-01T13:52:45;19.30;22.40
69800;DHT22;67217;51.008;4.644;2023-03-01T13:55:24;19.90;21.90
69800;DHT22;67217;51.008;4.644;2023-03-01T13:57:55;19.90;22.00
69800;DHT22;67217;51.008;4.644;2023-03-01T14:00:33;19.10;22.70
69800;DHT22;67217;51.008;4.644;2023-03-01T14:03:06;18.70;23.00
69800;DHT22;67217;51.008;4.644;2023-03-01T14:05:34;18.70;23.10
69800;DHT22;67217;51.008;4.644;2023-03-01T14:08:17;18.90;22.00
69800;DHT22;67217;51.008;4.644;2023-03-01T14:13:32;17.40;24.20
69800;DHT22;67217;51.008;4.644;2023-03-01T14:21:35;18.20;22.90
69800;DHT22;67217;51.008;4.644;2023-03-01T14:24:03;17.60;23.90
69800;DHT22;67217;51.008;4.644;2023-03-01T14:26:32;17.30;24.70
69800;DHT22;67217;51.008;4.644;2023-03-01T14:29:02;17.10;24.40
69800;DHT22;67217;51.008;4.644;2023-03-01T14:31:38;16.80;25.70
69800;DHT22;67217;51.008;4.644;2023-03-01T14:34:16;16.50;26.00
69800;DHT22;67217;51.008;4.644;2023-03-01T14:36:35;16.60;25.90
69800;DHT22;67217;51.008;4.644;2023-03-01T14:39:15;16.70;25.80
69800;DHT22;67217;51.008;4.644;2023-03-01T14:41:36;16.70;25.70
69800;DHT22;67217;51.008;4.644;2023-03-01T14:44:06;16.60;25.80
69800;DHT22;67217;51.008;4.644;2023-03-01T14:46:37;16.10;26.20
69800;DHT22;67217;51.008;4.644;2023-03-01T14:52:05;15.70;26.40
69800;DHT22;67217;51.008;4.644;2023-03-01T14:54:53;15.70;26.80
69800;DHT22;67217;51.008;4.644;2023-03-01T14:57:24;15.90;26.00
69800;DHT22;67217;51.008;4.644;2023-03-01T14:59:55;15.30;26.60
69800;DHT22;67217;51.008;4.644;2023-03-01T15:02:26;14.90;27.60
69800;DHT22;67217;51.008;4.644;2023-03-01T15:05:00;15.20;26.90
69800;DHT22;67217;51.008;4.644;2023-03-01T15:07:34;14.90;27.50
69800;DHT22;67217;51.008;4.644;2023-03-01T15:10:03;14.20;28.30
69800;DHT22;67217;51.008;4.644;2023-03-01T15:12:34;13.80;29.00
69800;DHT22;67217;51.008;4.644;2023-03-01T15:17:53;12.90;31.20
69800;DHT22;67217;51.008;4.644;2023-03-01T15:20:41;13.20;30.70
69800;DHT22;67217;51.008;4.644;2023-03-01T15:23:38;13.20;31.20
69800;DHT22;67217;51.008;4.644;2023-03-01T15:25:46;13.00;31.80
69800;DHT22;67217;51.008;4.644;2023-03-01T15:28:18;12.80;31.80
69800;DHT22;67217;51.008;4.644;2023-03-01T15:31:33;12.30;32.60
69800;DHT22;67217;51.008;4.644;2023-03-01T15:33:35;11.90;33.60
69800;DHT22;67217;51.008;4.644;2023-03-01T15:39:02;11.50;34.70
69800;DHT22;67217;51.008;4.644;2023-03-01T15:41:46;11.80;34.50
69800;DHT22;67217;51.008;4.644;2023-03-01T15:44:26;11.80;34.60
69800;DHT22;67217;51.008;4.644;2023-03-01T15:46:53;12.00;33.90
69800;DHT22;67217;51.008;4.644;2023-03-01T15:49:36;12.40;33.50
69800;DHT22;67217;51.008;4.644;2023-03-01T15:52:09;12.70;31.90
69800;DHT22;67217;51.008;4.644;2023-03-01T15:54:35;12.40;32.60
69800;DHT22;67217;51.008;4.644;2023-03-01T15:57:04;12.00;32.50
69800;DHT22;67217;51.008;4.644;2023-03-01T15:59:32;11.60;34.30
69800;DHT22;67217;51.008;4.644;2023-03-01T16:02:00;11.40;33.90
69800;DHT22;67217;51.008;4.644;2023-03-01T16:04:27;11.00;35.90
69800;DHT22;67217;51.008;4.644;2023-03-01T16:06:55;10.80;36.50
69800;DHT22;67217;51.008;4.644;2023-03-01T16:09:24;10.50;37.90
69800;DHT22;67217;51.008;4.644;2023-03-01T16:11:53;10.50;37.80
69800;DHT22;67217;51.008;4.644;2023-03-01T16:14:21;10.30;37.90
69800;DHT22;67217;51.008;4.644;2023-03-01T16:16:49;10.20;37.90
69800;DHT22;67217;51.008;4.644;2023-03-01T16:19:17;10.00;37.90
69800;DHT22;67217;51.008;4.644;2023-03-01T16:21:45;9.80;37.80
69800;DHT22;67217;51.008;4.644;2023-03-01T16:24:14;9.70;38.20
69800;DHT22;67217;51.008;4.644;2023-03-01T16:26:43;9.50;38.80
69800;DHT22;67217;51.008;4.644;2023-03-01T16:29:11;9.40;39.10
69800;DHT22;67217;51.008;4.644;2023-03-01T16:31:39;9.30;38.20
69800;DHT22;67217;51.008;4.644;2023-03-01T16:34:07;9.10;38.70
69800;DHT22;67217;51.008;4.644;2023-03-01T16:36:34;8.90;39.30
69800;DHT22;67217;51.008;4.644;2023-03-01T16:39:03;8.90;39.50
69800;DHT22;67217;51.008;4.644;2023-03-01T16:41:31;8.80;39.90
69800;DHT22;67217;51.008;4.644;2023-03-01T16:43:58;8.70;40.20
69800;DHT22;67217;51.008;4.644;2023-03-01T16:46:28;8.60;40.60
69800;DHT22;67217;51.008;4.644;2023-03-01T16:48:56;8.40;41.30
69800;DHT22;67217;51.008;4.644;2023-03-01T16:51:24;8.30;41.80
69800;DHT22;67217;51.008;4.644;2023-03-01T16:53:52;8.20;42.30
69800;DHT22;67217;51.008;4.644;2023-03-01T16:56:20;8.20;42.20
69800;DHT22;67217;51.008;4.644;2023-03-01T16:58:48;8.10;43.00
69800;DHT22;67217;51.008;4.644;2023-03-01T17:01:18;8.10;42.80
69800;DHT22;67217;51.008;4.644;2023-03-01T17:03:46;8.20;42.70
69800;DHT22;67217;51.008;4.644;2023-03-01T17:06:17;8.10;42.40
69800;DHT22;67217;51.008;4.644;2023-03-01T17:08:46;8.00;42.20
69800;DHT22;67217;51.008;4.644;2023-03-01T17:11:19;8.00;42.60
69800;DHT22;67217;51.008;4.644;2023-03-01T17:13:47;7.90;43.00
69800;DHT22;67217;51.008;4.644;2023-03-01T17:16:17;7.80;43.70
69800;DHT22;67217;51.008;4.644;2023-03-01T17:19:05;7.70;43.60
69800;DHT22;67217;51.008;4.644;2023-03-01T17:21:33;7.50;44.30
69800;DHT22;67217;51.008;4.644;2023-03-01T17:24:01;7.60;43.60
69800;DHT22;67217;51.008;4.644;2023-03-01T17:26:29;7.50;44.50
69800;DHT22;67217;51.008;4.644;2023-03-01T17:28:57;7.50;43.70
69800;DHT22;67217;51.008;4.644;2023-03-01T17:31:25;7.50;43.60
69800;DHT22;67217;51.008;4.644;2023-03-01T17:33:52;7.40;43.90
69800;DHT22;67217;51.008;4.644;2023-03-01T17:36:20;7.50;43.60
69800;DHT22;67217;51.008;4.644;2023-03-01T17:38:48;7.40;43.70
69800;DHT22;67217;51.008;4.644;2023-03-01T17:41:16;7.30;44.20
69800;DHT22;67217;51.008;4.644;2023-03-01T17:43:45;7.40;43.90
69800;DHT22;67217;51.008;4.644;2023-03-01T17:46:12;7.30;44.50
69800;DHT22;67217;51.008;4.644;2023-03-01T17:48:40;7.10;45.10
69800;DHT22;67217;51.008;4.644;2023-03-01T17:51:10;7.20;44.60
69800;DHT22;67217;51.008;4.644;2023-03-01T17:53:38;7.00;45.00
69800;DHT22;67217;51.008;4.644;2023-03-01T17:56:06;7.00;44.80
69800;DHT22;67217;51.008;4.644;2023-03-01T17:58:34;7.10;45.10
69800;DHT22;67217;51.008;4.644;2023-03-01T18:01:20;6.90;45.30
69800;DHT22;67217;51.008;4.644;2023-03-01T18:03:44;6.90;45.40
69800;DHT22;67217;51.008;4.644;2023-03-01T18:06:14;7.10;44.80
69800;DHT22;67217;51.008;4.644;2023-03-01T18:08:43;7.00;45.00
69800;DHT22;67217;51.008;4.644;2023-03-01T18:11:12;6.80;45.60